Time;durP1;ratioP1;P1;durP2;ratioP2;P2;SDS_P1;SDS_P2;PMS_P1;PMS_P2;Temp;Humidity;BMP_temperature;BMP_pressure;BME280_temperature;BME280_humidity;BME280_pressure;Samples;Min_cycle;Max_cycle;Signal;HPM_P1;HPM_P2
2023/04/26 00:02:03;;;;;;;;;;;;;;;7.38;47.81;100859.72;5013295;28;6776;-81
2023/04/26 00:04:29;;;;;;;;;;;;;;;7.33;48.27;100857.72;4977932;28;6872;-76
2023/04/26 00:06:56;;;;;;;;;;;;;;;7.30;48.22;100860.09;4980634;28;7004;-76
2023/04/26 00:09:21;;;;;;;;;;;;;;;7.25;48.68;100852.91;4979778;28;7216;-79
2023/04/26 00:11:48;;;;;;;;;;;;;;;7.20;48.54;100860.22;4978795;28;6963;-79
2023/04/26 00:14:14;;;;;;;;;;;;;;;7.15;49.09;100857.38;4977159;28;6804;-81
2023/04/26 00:16:40;;;;;;;;;;;;;;;7.11;48.48;100852.84;4977462;28;7229;-76
2023/04/26 00:19:05;;;;;;;;;;;;;;;7.07;48.83;100856.84;4963207;28;7280;-78
2023/04/26 00:21:31;;;;;;;;;;;;;;;7.04;49.20;100855.75;4972242;28;6990;-79
2023/04/26 00:23:57;;;;;;;;;;;;;;;7.01;48.54;100856.41;4974013;28;8383;-80
2023/04/26 00:26:22;;;;;;;;;;;;;;;6.97;48.94;100854.44;4983831;28;8595;-79
2023/04/26 00:28:48;;;;;;;;;;;;;;;6.92;49.25;100850.66;4968718;28;8041;-80
2023/04/26 00:31:15;;;;;;;;;;;;;;;6.87;49.27;100852.03;5010491;28;7327;-80
2023/04/26 00:33:41;;;;;;;;;;;;;;;6.81;48.96;100853.34;4994124;28;9604;-79
2023/04/26 00:36:07;;;;;;;;;;;;;;;6.76;48.61;100847.06;4994344;28;8401;-81
2023/04/26 00:38:32;;;;;;;;;;;;;;;6.70;49.08;100849.16;4979548;28;6983;-80
2023/04/26 00:40:58;;;;;;;;;;;;;;;6.64;49.07;100843.63;4978307;28;7162;-80
2023/04/26 00:43:23;;;;;;;;;;;;;;;6.60;49.44;100847.59;4980538;28;6780;-78
2023/04/26 00:45:50;;;;;;;;;;;;;;;6.55;49.56;100845.50;4974631;28;7045;-81
2023/04/26 00:48:17;;;;;;;;;;;;;;;6.50;49.57;100843.53;4978636;28;6780;-81
2023/04/26 00:50:43;;;;;;;;;;;;;;;6.47;49.55;100848.41;4981924;28;8513;-81
2023/04/26 00:53:13;;;;;;;;;;;;;;;6.44;50.00;100843.09;4981390;28;7145;-81
2023/04/26 00:55:40;;;;;;;;;;;;;;;6.41;49.44;100847.06;4977362;28;6800;-79
2023/04/26 00:58:06;;;;;;;;;;;;;;;6.37;49.34;100853.59;4988854;28;6984;-79
2023/04/26 01:00:32;;;;;;;;;;;;;;;6.34;50.03;100851.75;4977198;28;7381;-80
2023/04/26 01:02:58;;;;;;;;;;;;;;;6.31;50.20;100853.19;4959918;28;6972;-81
2023/04/26 01:05:23;;;;;;;;;;;;;;;6.30;50.06;100853.94;4997413;28;7259;-76
2023/04/26 01:07:49;;;;;;;;;;;;;;;6.28;50.29;100856.38;4995581;28;6788;-80
2023/04/26 01:10:16;;;;;;;;;;;;;;;6.28;49.99;100855.47;4989948;28;7070;-81
2023/04/26 01:12:42;;;;;;;;;;;;;;;6.27;50.23;100856.25;4980376;28;6963;-81
2023/04/26 01:15:10;;;;;;;;;;;;;;;6.25;50.16;100854.50;4977257;28;6945;-79
2023/04/26 01:17:36;;;;;;;;;;;;;;;6.24;50.32;100854.41;5011916;28;6800;-80
2023/04/26 01:20:04;;;;;;;;;;;;;;;6.23;50.43;100857.72;4977374;28;7103;-78
2023/04/26 01:22:35;;;;;;;;;;;;;;;6.21;50.44;100852.50;5012860;28;8062;-79
2023/04/26 01:25:01;;;;;;;;;;;;;;;6.19;50.84;100850.63;4976334;28;10124;-80
2023/04/26 01:27:26;;;;;;;;;;;;;;;6.18;50.65;100854.84;4975450;28;7162;-77
2023/04/26 01:29:52;;;;;;;;;;;;;;;6.17;50.40;100860.66;4981768;28;6792;-81
2023/04/26 01:32:18;;;;;;;;;;;;;;;6.18;51.01;100859.03;4975559;28;7301;-81
2023/04/26 01:34:44;;;;;;;;;;;;;;;6.20;51.11;100860.03;4970427;28;7049;-76
2023/04/26 01:37:09;;;;;;;;;;;;;;;6.22;51.30;100851.72;4977092;28;6968;-81
2023/04/26 01:39:35;;;;;;;;;;;;;;;6.23;50.99;100852.63;5007868;28;6768;-80
2023/04/26 01:42:03;;;;;;;;;;;;;;;6.21;50.63;100856.69;4993936;28;7045;-78
2023/04/26 01:44:29;;;;;;;;;;;;;;;6.19;50.59;100854.06;4964693;28;7245;-80
2023/04/26 01:46:55;;;;;;;;;;;;;;;6.15;50.83;100848.63;5013360;28;6791;-81
2023/04/26 01:49:21;;;;;;;;;;;;;;;6.11;51.20;100856.03;4974608;28;6779;-81
2023/04/26 01:51:46;;;;;;;;;;;;;;;6.09;50.75;100854.16;4978535;28;7375;-76
2023/04/26 01:54:12;;;;;;;;;;;;;;;6.06;51.16;100853.91;4978226;28;6967;-76
2023/04/26 01:56:37;;;;;;;;;;;;;;;6.04;51.13;100846.19;5007232;28;7162;-80
2023/04/26 01:59:03;;;;;;;;;;;;;;;6.01;51.30;100850.13;5011702;28;7240;-74
2023/04/26 02:01:29;;;;;;;;;;;;;;;5.98;50.69;100853.34;4979122;28;6797;-80
2023/04/26 02:03:54;;;;;;;;;;;;;;;5.95;50.94;100846.34;5013468;28;7168;-77
2023/04/26 02:06:20;;;;;;;;;;;;;;;5.94;51.09;100849.66;4975702;28;6851;-79
2023/04/26 02:08:46;;;;;;;;;;;;;;;5.93;51.68;100853.00;4972745;28;9593;-77
2023/04/26 02:11:12;;;;;;;;;;;;;;;5.91;51.53;100852.00;4973840;28;6839;-78
2023/04/26 02:13:37;;;;;;;;;;;;;;;5.91;51.65;100851.09;4972317;28;6967;-78
2023/04/26 02:16:03;;;;;;;;;;;;;;;5.90;51.43;100851.88;4977010;28;8491;-80
2023/04/26 02:18:29;;;;;;;;;;;;;;;5.89;51.68;100850.09;4979655;28;6792;-80
2023/04/26 02:20:55;;;;;;;;;;;;;;;5.86;51.62;100843.13;4957631;28;6975;-76
2023/04/26 02:23:20;;;;;;;;;;;;;;;5.85;51.56;100846.44;5005222;28;7424;-81
2023/04/26 02:25:47;;;;;;;;;;;;;;;5.86;51.80;100850.75;4979968;28;6788;-78
2023/04/26 02:28:15;;;;;;;;;;;;;;;5.86;51.50;100849.88;4981737;28;7491;-78
2023/04/26 02:30:41;;;;;;;;;;;;;;;5.85;51.52;100849.00;5013603;28;6800;-80
2023/04/26 02:33:07;;;;;;;;;;;;;;;5.84;51.60;100852.31;4979252;28;6860;-81
2023/04/26 02:35:36;;;;;;;;;;;;;;;5.86;51.86;100844.81;4973495;28;6780;-80
2023/04/26 02:38:02;;;;;;;;;;;;;;;5.89;52.03;100848.47;5011895;28;6960;-81
2023/04/26 02:40:29;;;;;;;;;;;;;;;5.90;52.52;100842.59;4977804;28;6935;-77
2023/04/26 02:42:54;;;;;;;;;;;;;;;5.91;52.31;100844.38;4965056;28;7190;-80
2023/04/26 02:45:20;;;;;;;;;;;;;;;5.93;52.11;100842.81;4980434;28;8458;-77
2023/04/26 02:47:45;;;;;;;;;;;;;;;5.94;52.50;100843.69;5011320;28;6942;-79
2023/04/26 02:50:11;;;;;;;;;;;;;;;5.92;52.17;100842.69;4960123;28;6957;-81
2023/04/26 02:52:37;;;;;;;;;;;;;;;5.87;52.38;100837.25;4979508;28;6855;-75
2023/04/26 02:55:03;;;;;;;;;;;;;;;5.86;51.69;100837.16;4993089;28;8117;-75
2023/04/26 02:57:32;;;;;;;;;;;;;;;5.81;52.26;100836.81;4966103;28;7063;-72
2023/04/26 02:59:58;;;;;;;;;;;;;;;5.76;52.06;100828.84;4968014;28;6792;-73
2023/04/26 03:02:25;;;;;;;;;;;;;;;5.69;51.74;100832.56;4977803;28;6790;-73
2023/04/26 03:04:50;;;;;;;;;;;;;;;5.66;52.16;100826.41;4971336;28;6866;-72
2023/04/26 03:07:16;;;;;;;;;;;;;;;5.63;51.93;100831.22;4984570;28;6955;-73
2023/04/26 03:09:42;;;;;;;;;;;;;;;5.59;52.52;100826.69;4992361;28;8167;-73
2023/04/26 03:12:08;;;;;;;;;;;;;;;5.58;52.38;100830.88;5005153;28;7043;-72
2023/04/26 03:14:35;;;;;;;;;;;;;;;5.55;52.53;100823.03;4972013;28;6959;-73
2023/04/26 03:17:01;;;;;;;;;;;;;;;5.52;52.40;100821.16;5008274;28;7096;-71
2023/04/26 03:19:27;;;;;;;;;;;;;;;5.50;52.15;100814.16;4973416;28;7248;-73
2023/04/26 03:21:54;;;;;;;;;;;;;;;5.45;52.22;100810.41;4973827;28;7040;-73
2023/04/26 03:24:20;;;;;;;;;;;;;;;5.41;52.79;100811.84;4953554;28;7198;-75
2023/04/26 03:26:46;;;;;;;;;;;;;;;5.37;52.87;100813.25;4975796;28;6776;-74
2023/04/26 03:29:11;;;;;;;;;;;;;;;5.35;52.69;100817.34;4983635;28;6780;-75
2023/04/26 03:31:37;;;;;;;;;;;;;;;5.29;52.93;100811.78;4993770;28;8404;-72
2023/04/26 03:34:04;;;;;;;;;;;;;;;5.26;52.66;100812.47;5013315;28;6792;-73
2023/04/26 03:36:30;;;;;;;;;;;;;;;5.24;52.73;100808.88;4977272;28;6863;-72
2023/04/26 03:38:56;;;;;;;;;;;;;;;5.22;53.11;100807.91;4968347;28;7057;-72
2023/04/26 03:41:22;;;;;;;;;;;;;;;5.22;53.34;100812.09;4978995;28;6791;-71
2023/04/26 03:43:48;;;;;;;;;;;;;;;5.21;52.82;100813.75;4976004;28;7748;-73
2023/04/26 03:46:14;;;;;;;;;;;;;;;5.22;52.98;100814.66;4971634;28;7267;-75
2023/04/26 03:48:39;;;;;;;;;;;;;;;5.22;52.98;100814.66;4965079;28;7062;-73
2023/04/26 03:51:05;;;;;;;;;;;;;;;5.19;52.89;100820.38;4997977;28;7093;-74
2023/04/26 03:53:32;;;;;;;;;;;;;;;5.16;52.93;100819.25;4984505;28;6816;-73
2023/04/26 03:55:57;;;;;;;;;;;;;;;5.12;53.50;100813.94;4991925;28;6795;-72
2023/04/26 03:58:26;;;;;;;;;;;;;;;5.12;53.72;100816.50;5006677;28;6944;-72
2023/04/26 04:00:57;;;;;;;;;;;;;;;5.09;53.75;100808.59;4975748;28;7167;-72
2023/04/26 04:03:22;;;;;;;;;;;;;;;5.09;53.06;100813.69;4978043;28;7127;-75
2023/04/26 04:05:48;;;;;;;;;;;;;;;5.09;53.83;100817.91;4969420;28;6823;-73
2023/04/26 04:08:14;;;;;;;;;;;;;;;5.10;53.35;100817.13;4970363;28;6792;-72
2023/04/26 04:10:41;;;;;;;;;;;;;;;5.10;53.55;100819.69;4959571;28;6991;-75
2023/04/26 04:13:07;;;;;;;;;;;;;;;5.11;53.75;100821.44;4979826;28;6815;-75
2023/04/26 04:15:33;;;;;;;;;;;;;;;5.09;54.07;100826.41;4986980;28;7007;-74
2023/04/26 04:17:58;;;;;;;;;;;;;;;5.10;53.40;100823.09;4980080;28;6792;-71
2023/04/26 04:20:24;;;;;;;;;;;;;;;5.13;54.04;100822.44;4982331;28;6788;-74
2023/04/26 04:22:50;;;;;;;;;;;;;;;5.16;53.72;100826.88;4974791;28;7136;-73
2023/04/26 04:25:16;;;;;;;;;;;;;;;5.16;53.60;100832.81;4998681;28;7125;-72
2023/04/26 04:27:42;;;;;;;;;;;;;;;5.20;53.86;100831.41;4982568;28;7011;-77
2023/04/26 04:30:08;;;;;;;;;;;;;;;5.22;53.99;100834.97;5014551;28;6860;-75
2023/04/26 04:32:35;;;;;;;;;;;;;;;5.27;53.99;100833.66;4993506;28;6800;-75
2023/04/26 04:35:01;;;;;;;;;;;;;;;5.33;54.68;100841.75;4980735;28;7173;-75
2023/04/26 04:37:32;;;;;;;;;;;;;;;5.38;54.41;100835.34;4988249;28;7187;-75
2023/04/26 04:39:58;;;;;;;;;;;;;;;5.45;54.75;100835.84;4982023;28;7229;-78
2023/04/26 04:42:26;;;;;;;;;;;;;;;5.50;54.54;100847.22;4960435;28;6984;-74
2023/04/26 04:44:52;;;;;;;;;;;;;;;5.55;54.64;100844.28;4980430;28;6989;-75
2023/04/26 04:47:17;;;;;;;;;;;;;;;5.62;54.35;100837.09;4976076;28;6785;-76
2023/04/26 04:49:44;;;;;;;;;;;;;;;5.67;54.58;100834.13;4981333;28;6914;-74
2023/04/26 04:52:09;;;;;;;;;;;;;;;5.75;54.45;100841.44;4980625;28;6800;-74
2023/04/26 04:54:35;;;;;;;;;;;;;;;5.82;54.53;100838.59;4999485;28;6789;-74
2023/04/26 04:57:01;;;;;;;;;;;;;;;5.90;54.62;100845.13;5016560;28;6775;-76
2023/04/26 04:59:27;;;;;;;;;;;;;;;5.98;54.59;100851.66;4976714;28;7142;-75
2023/04/26 05:01:53;;;;;;;;;;;;;;;6.06;54.68;100854.81;4991829;28;6946;-74
2023/04/26 05:04:18;;;;;;;;;;;;;;;6.21;55.25;100849.06;4957202;28;6796;-76
2023/04/26 05:06:44;;;;;;;;;;;;;;;6.39;55.39;100852.94;4961430;28;7162;-74
2023/04/26 05:09:10;;;;;;;;;;;;;;;6.61;56.46;100851.06;4944257;28;7184;-75
2023/04/26 05:11:35;;;;;;;;;;;;;;;6.84;56.54;100859.44;4957086;28;7746;-74
2023/04/26 05:14:01;;;;;;;;;;;;;;;7.07;56.57;100854.28;4974869;28;7283;-77
2023/04/26 05:16:27;;;;;;;;;;;;;;;7.29;56.42;100854.88;4992060;28;6866;-80
2023/04/26 05:18:53;;;;;;;;;;;;;;;7.50;56.42;100861.44;4955725;28;7014;-78
2023/04/26 05:21:20;;;;;;;;;;;;;;;7.66;55.56;100861.59;4961067;28;6788;-78
2023/04/26 05:23:46;;;;;;;;;;;;;;;7.76;55.37;100856.31;4986081;28;7256;-78
2023/04/26 05:26:15;;;;;;;;;;;;;;;7.85;55.41;100854.38;4953466;28;6848;-78
2023/04/26 05:28:41;;;;;;;;;;;;;;;7.94;54.66;100858.34;4960526;28;6792;-78
2023/04/26 05:31:08;;;;;;;;;;;;;;;8.02;54.85;100864.84;4965922;28;6796;-78
2023/04/26 05:33:35;;;;;;;;;;;;;;;8.08;54.28;100867.78;4969872;28;7053;-78
2023/04/26 05:36:01;;;;;;;;;;;;;;;8.15;54.14;100872.50;4965625;28;7241;-78
2023/04/26 05:38:27;;;;;;;;;;;;;;;8.19;53.58;100871.03;4966058;28;7055;-76
2023/04/26 05:40:52;;;;;;;;;;;;;;;8.26;53.86;100872.31;4966224;28;6780;-75
2023/04/26 05:43:18;;;;;;;;;;;;;;;8.31;53.59;100879.50;4962143;28;6796;-75
2023/04/26 05:45:55;;;;;;;;;;;;;;;8.38;53.55;100874.78;4964986;28;7914;-75
2023/04/26 05:48:23;;;;;;;;;;;;;;;8.45;53.87;100867.59;4966119;28;6884;-75
2023/04/26 05:50:50;;;;;;;;;;;;;;;8.55;52.89;100868.22;4944983;28;7249;-76
2023/04/26 05:53:18;;;;;;;;;;;;;;;8.63;53.75;100878.91;4965031;28;7051;-76
2023/04/26 05:55:44;;;;;;;;;;;;;;;8.71;52.89;100870.97;4976746;28;7236;-75
2023/04/26 05:58:10;;;;;;;;;;;;;;;8.82;54.01;100866.53;4961942;28;7002;-75
2023/04/26 06:00:37;;;;;;;;;;;;;;;8.95;53.43;100875.84;4995334;28;7309;-74
2023/04/26 06:03:03;;;;;;;;;;;;;;;9.09;53.35;100871.59;4977652;28;6883;-75
2023/04/26 06:05:30;;;;;;;;;;;;;;;9.26;53.20;100870.03;4990309;28;7175;-75
2023/04/26 06:07:56;;;;;;;;;;;;;;;9.44;53.16;100877.06;4979722;28;7873;-75
2023/04/26 06:10:22;;;;;;;;;;;;;;;9.61;52.78;100879.75;4973691;28;6788;-75
2023/04/26 06:12:47;;;;;;;;;;;;;;;9.79;53.03;100877.41;4972063;28;6964;-75
2023/04/26 06:15:13;;;;;;;;;;;;;;;9.96;52.30;100880.97;5008907;28;6784;-75
2023/04/26 06:17:42;;;;;;;;;;;;;;;10.11;52.21;100886.97;4995215;28;8073;-75
2023/04/26 06:20:11;;;;;;;;;;;;;;;10.22;51.58;100885.03;4971580;28;6821;-75
2023/04/26 06:22:37;;;;;;;;;;;;;;;10.33;50.92;100874.50;5006162;28;7332;-75
2023/04/26 06:25:06;;;;;;;;;;;;;;;10.40;50.75;100872.38;4975805;28;6795;-75
2023/04/26 06:27:32;;;;;;;;;;;;;;;10.48;50.76;100869.38;4981782;28;6898;-75
2023/04/26 06:29:58;;;;;;;;;;;;;;;10.55;50.82;100881.75;5010661;28;6791;-75
2023/04/26 06:32:24;;;;;;;;;;;;;;;10.63;50.14;100877.94;5006456;28;6776;-75
2023/04/26 06:34:50;;;;;;;;;;;;;;;10.73;50.02;100881.00;4976175;28;6951;-75
2023/04/26 06:37:15;;;;;;;;;;;;;;;10.83;50.14;100873.03;4996530;28;6835;-75
2023/04/26 06:39:41;;;;;;;;;;;;;;;10.93;49.99;100876.97;4981585;28;6776;-75
2023/04/26 06:42:07;;;;;;;;;;;;;;;11.03;49.71;100880.91;4981167;28;6895;-75
2023/04/26 06:44:32;;;;;;;;;;;;;;;11.11;49.55;100877.09;4976274;28;6772;-75
2023/04/26 06:46:58;;;;;;;;;;;;;;;11.19;49.45;100880.91;4972682;28;6792;-75
2023/04/26 06:49:24;;;;;;;;;;;;;;;11.30;49.29;100884.06;4972045;28;7689;-75
2023/04/26 06:51:51;;;;;;;;;;;;;;;11.42;49.22;100883.81;4975582;28;6800;-75
2023/04/26 06:54:18;;;;;;;;;;;;;;;11.58;49.01;100885.50;4974255;28;7199;-75
2023/04/26 06:56:44;;;;;;;;;;;;;;;11.74;48.72;100881.16;4975135;28;7014;-75
2023/04/26 06:59:10;;;;;;;;;;;;;;;11.88;48.27;100882.72;4995500;28;7296;-75
2023/04/26 07:01:36;;;;;;;;;;;;;;;12.03;47.86;100889.47;4979386;28;6779;-75
2023/04/26 07:04:06;;;;;;;;;;;;;;;12.17;48.19;100885.03;4978323;28;6839;-74
2023/04/26 07:06:32;;;;;;;;;;;;;;;12.38;47.34;100886.88;4976832;28;6812;-75
2023/04/26 07:08:59;;;;;;;;;;;;;;;12.53;46.77;100886.75;4983254;28;6961;-75
2023/04/26 07:11:25;;;;;;;;;;;;;;;12.69;46.70;100888.34;4980334;28;7113;-75
2023/04/26 07:13:51;;;;;;;;;;;;;;;12.81;46.60;100893.19;4974180;28;7010;-74
2023/04/26 07:16:17;;;;;;;;;;;;;;;12.87;45.42;100902.06;4995291;28;7181;-74
2023/04/26 07:18:42;;;;;;;;;;;;;;;12.90;45.48;100902.19;4981961;28;7275;-74
2023/04/26 07:21:08;;;;;;;;;;;;;;;12.96;44.99;100896.44;4977078;28;6768;-74
2023/04/26 07:23:35;;;;;;;;;;;;;;;13.04;45.22;100889.09;5010206;28;7120;-74
2023/04/26 07:26:03;;;;;;;;;;;;;;;13.15;45.20;100889.56;4982975;28;7441;-75
2023/04/26 07:28:29;;;;;;;;;;;;;;;13.25;44.98;100896.03;4979763;28;6973;-75
2023/04/26 07:30:55;;;;;;;;;;;;;;;13.32;44.52;100895.47;4979497;28;7223;-75
2023/04/26 07:33:20;;;;;;;;;;;;;;;13.38;44.63;100890.59;4980726;28;7117;-71
2023/04/26 07:35:58;;;;;;;;;;;;;;;13.49;44.23;100891.13;4980112;28;6844;-74
2023/04/26 07:38:24;;;;;;;;;;;;;;;13.65;44.99;100886.63;4962949;28;7268;-73
2023/04/26 07:40:51;;;;;;;;;;;;;;;13.83;44.41;100891.69;4979395;28;6852;-73
2023/04/26 07:43:20;;;;;;;;;;;;;;;13.98;43.35;100892.34;4985431;28;7161;-74
2023/04/26 07:45:46;;;;;;;;;;;;;;;14.14;43.66;100887.81;4964378;28;7318;-73
2023/04/26 07:48:12;;;;;;;;;;;;;;;14.27;43.21;100887.50;4995409;28;6958;-72
2023/04/26 07:50:38;;;;;;;;;;;;;;;14.38;42.54;100882.78;5011247;28;6919;-74
2023/04/26 07:53:03;;;;;;;;;;;;;;;14.49;43.05;100869.44;4982309;28;7122;-71
2023/04/26 07:55:29;;;;;;;;;;;;;;;14.58;41.70;100870.69;4978403;28;6991;-71
2023/04/26 07:57:55;;;;;;;;;;;;;;;14.73;41.82;100869.53;4994305;28;7102;-72
2023/04/26 08:00:21;;;;;;;;;;;;;;;14.92;41.88;100865.09;4978637;28;7007;-72
2023/04/26 08:02:48;;;;;;;;;;;;;;;15.09;41.31;100865.69;4997651;28;6797;-73
2023/04/26 08:05:14;;;;;;;;;;;;;;;15.19;40.97;100865.22;4974000;28;7083;-73
2023/04/26 08:07:41;;;;;;;;;;;;;;;15.14;40.21;100870.22;4977371;28;6901;-72
2023/04/26 08:10:08;;;;;;;;;;;;;;;15.07;40.31;100865.66;4981763;28;6812;-73
2023/04/26 08:12:36;;;;;;;;;;;;;;;15.00;40.29;100868.84;4964230;28;6989;-73
2023/04/26 08:15:03;;;;;;;;;;;;;;;14.99;39.72;100867.09;4974236;28;7259;-75
2023/04/26 08:17:30;;;;;;;;;;;;;;;15.08;40.20;100870.00;4980856;28;8250;-74
2023/04/26 08:19:57;;;;;;;;;;;;;;;15.17;39.74;100868.59;4960314;28;8188;-75
2023/04/26 08:22:23;;;;;;;;;;;;;;;15.22;39.10;100872.19;4978811;28;7308;-75
2023/04/26 08:24:54;;;;;;;;;;;;;;;15.24;39.76;100873.13;4998944;28;6784;-71
2023/04/26 08:27:21;;;;;;;;;;;;;;;15.28;38.60;100873.31;4984375;28;6995;-76
2023/04/26 08:29:47;;;;;;;;;;;;;;;15.34;39.42;100877.81;4957639;28;7242;-73
2023/04/26 08:32:13;;;;;;;;;;;;;;;15.45;39.50;100882.47;4991783;28;7146;-73
2023/04/26 08:34:39;;;;;;;;;;;;;;;15.56;39.42;100881.19;4977796;28;6780;-73
2023/04/26 08:37:06;;;;;;;;;;;;;;;15.65;39.28;100883.19;4979778;28;6780;-75
2023/04/26 08:39:33;;;;;;;;;;;;;;;15.75;38.54;100889.56;4980181;28;6868;-72
2023/04/26 08:42:12;;;;;;;;;;;;;;;15.73;38.77;100880.84;4973381;28;7304;-72
2023/04/26 08:44:42;;;;;;;;;;;;;;;15.71;38.23;100887.69;4997952;28;6803;-75
2023/04/26 08:47:21;;;;;;;;;;;;;;;15.64;38.01;100882.28;4969869;28;6835;-72
2023/04/26 08:49:58;;;;;;;;;;;;;;;15.52;37.34;100884.44;4988890;28;6820;-74
2023/04/26 08:52:30;;;;;;;;;;;;;;;15.41;37.46;100882.38;4983416;28;7012;-73
2023/04/26 08:54:58;;;;;;;;;;;;;;;15.36;37.27;100888.19;4997176;28;6811;-72
2023/04/26 08:57:25;;;;;;;;;;;;;;;15.31;37.40;100888.03;4975860;28;7533;-71
2023/04/26 08:59:52;;;;;;;;;;;;;;;15.31;37.72;100882.88;4965652;28;7011;-76
2023/04/26 09:02:22;;;;;;;;;;;;;;;15.39;37.88;100883.13;4980505;28;7251;-73
2023/04/26 09:04:50;;;;;;;;;;;;;;;15.49;37.35;100880.06;4986894;28;7178;-74
2023/04/26 09:07:46;;;;;;;;;;;;;;;15.55;37.10;100875.13;4983639;28;7236;-72
2023/04/26 09:10:18;;;;;;;;;;;;;;;15.50;36.72;100875.78;4992838;28;7185;-73
2023/04/26 09:12:44;;;;;;;;;;;;;;;15.44;36.73;100871.28;5014735;28;6896;-73
2023/04/26 09:15:10;;;;;;;;;;;;;;;15.41;36.92;100873.75;4983798;28;6776;-75
2023/04/26 09:17:40;;;;;;;;;;;;;;;15.46;36.67;100881.69;4984702;28;6986;-73
2023/04/26 09:20:32;;;;;;;;;;;;;;;15.67;36.97;100873.78;4980992;28;6878;-73
2023/04/26 09:23:09;;;;;;;;;;;;;;;16.38;37.14;100870.09;4979893;28;6796;-73
2023/04/26 09:25:36;;;;;;;;;;;;;;;17.41;36.73;100865.38;4972584;28;7262;-75
2023/04/26 09:28:03;;;;;;;;;;;;;;;18.50;35.89;100853.41;4979754;28;6872;-72
2023/04/26 09:30:36;;;;;;;;;;;;;;;19.51;34.49;100858.06;4978662;28;6980;-72
2023/04/26 09:33:05;;;;;;;;;;;;;;;20.06;33.30;100853.81;4980630;28;7919;-74
2023/04/26 09:35:35;;;;;;;;;;;;;;;20.08;32.02;100845.16;4979137;28;8124;-74
2023/04/26 09:38:16;;;;;;;;;;;;;;;19.60;31.67;100849.56;4971944;28;7224;-73
2023/04/26 09:40:45;;;;;;;;;;;;;;;18.88;32.37;100842.97;4998911;28;7353;-75
2023/04/26 09:43:16;;;;;;;;;;;;;;;18.50;32.96;100855.09;4992578;28;6987;-72
2023/04/26 09:45:56;;;;;;;;;;;;;;;18.29;32.59;100852.03;4983350;28;6965;-73
2023/04/26 09:48:30;;;;;;;;;;;;;;;17.97;32.16;100859.03;4963540;28;6994;-75
2023/04/26 09:50:58;;;;;;;;;;;;;;;17.71;32.75;100856.66;5013586;28;6830;-75
2023/04/26 09:53:41;;;;;;;;;;;;;;;17.65;33.32;100853.88;4978867;28;6938;-75
2023/04/26 09:56:12;;;;;;;;;;;;;;;17.62;32.73;100859.84;4975817;28;7398;-75
2023/04/26 09:58:56;;;;;;;;;;;;;;;17.58;32.90;100855.44;4997895;28;7023;-75
2023/04/26 10:01:23;;;;;;;;;;;;;;;17.43;32.39;100854.22;4977118;28;6947;-75
2023/04/26 10:03:48;;;;;;;;;;;;;;;17.31;32.95;100865.13;4961770;28;7251;-75
2023/04/26 10:06:18;;;;;;;;;;;;;;;17.26;32.65;100861.50;4976307;28;6796;-75
2023/04/26 10:08:44;;;;;;;;;;;;;;;17.21;32.93;100852.75;4996855;28;7023;-75
2023/04/26 10:11:11;;;;;;;;;;;;;;;17.13;32.71;100849.91;4976990;28;6800;-75
2023/04/26 10:13:41;;;;;;;;;;;;;;;17.00;32.74;100840.94;4974654;28;6792;-74
2023/04/26 10:16:08;;;;;;;;;;;;;;;16.89;32.48;100845.78;4988247;28;7617;-75
2023/04/26 10:18:35;;;;;;;;;;;;;;;16.90;32.58;100841.44;4974288;28;6922;-75
2023/04/26 10:21:23;;;;;;;;;;;;;;;17.07;31.97;100845.44;4993033;28;6947;-75
2023/04/26 10:23:49;;;;;;;;;;;;;;;17.33;32.09;100834.94;4975959;28;6864;-76
2023/04/26 10:26:53;;;;;;;;;;;;;;;17.70;31.56;100839.34;4963336;28;7241;-77
2023/04/26 10:29:24;;;;;;;;;;;;;;;18.16;30.90;100832.75;5013125;28;6998;-77
2023/04/26 10:32:05;;;;;;;;;;;;;;;18.56;30.81;100831.88;4978564;28;7288;-75
2023/04/26 10:34:36;;;;;;;;;;;;;;;18.84;30.84;100824.69;5019514;28;7006;-75
2023/04/26 10:37:15;;;;;;;;;;;;;;;19.06;30.20;100826.00;4963877;28;7016;-75
2023/04/26 10:39:47;;;;;;;;;;;;;;;19.07;30.00;100827.75;4986513;28;6977;-75
2023/04/26 10:42:31;;;;;;;;;;;;;;;19.06;30.52;100828.59;4985057;28;7232;-75
2023/04/26 10:45:21;;;;;;;;;;;;;;;19.15;30.63;100821.00;4981972;28;7177;-75
2023/04/26 10:47:46;;;;;;;;;;;;;;;19.25;29.97;100827.25;4982934;28;7528;-75
2023/04/26 10:50:12;;;;;;;;;;;;;;;19.40;29.87;100824.06;4985230;28;7111;-74
2023/04/26 10:53:00;;;;;;;;;;;;;;;19.34;29.87;100821.34;4967777;28;7037;-74
2023/04/26 10:55:43;;;;;;;;;;;;;;;19.03;29.67;100815.56;5000534;28;6994;-74
2023/04/26 10:58:28;;;;;;;;;;;;;;;18.65;29.46;100819.13;4984122;28;6996;-75
2023/04/26 11:01:16;;;;;;;;;;;;;;;18.52;29.94;100815.38;4983465;28;7193;-75
2023/04/26 11:04:02;;;;;;;;;;;;;;;18.62;30.04;100811.25;4966839;28;6984;-75
2023/04/26 11:06:48;;;;;;;;;;;;;;;18.62;29.48;100819.03;4988451;28;6820;-75
2023/04/26 11:09:38;;;;;;;;;;;;;;;18.49;29.94;100810.09;4988782;28;7695;-74
2023/04/26 11:12:11;;;;;;;;;;;;;;;18.44;29.84;100803.94;5017555;28;7275;-74
2023/04/26 11:14:38;;;;;;;;;;;;;;;18.43;30.06;100809.97;4984912;28;7125;-74
2023/04/26 11:17:05;;;;;;;;;;;;;;;18.60;29.76;100799.94;4982808;28;7065;-75
2023/04/26 11:19:31;;;;;;;;;;;;;;;18.84;29.39;100790.94;4979664;28;6808;-75
2023/04/26 11:22:02;;;;;;;;;;;;;;;18.99;28.90;100795.56;5017649;28;7083;-75
2023/04/26 11:24:30;;;;;;;;;;;;;;;19.09;29.05;100797.53;5002898;28;6814;-75
2023/04/26 11:26:59;;;;;;;;;;;;;;;19.20;28.45;100800.31;5016723;28;7063;-75
2023/04/26 11:29:25;;;;;;;;;;;;;;;19.26;28.53;100790.03;5001522;28;7857;-75
2023/04/26 11:31:57;;;;;;;;;;;;;;;19.41;28.79;100784.22;4982535;28;7107;-75
2023/04/26 11:34:33;;;;;;;;;;;;;;;19.68;28.53;100787.28;4985925;28;7227;-75
2023/04/26 11:37:00;;;;;;;;;;;;;;;19.91;28.17;100784.19;4967894;28;7253;-75
2023/04/26 11:39:26;;;;;;;;;;;;;;;20.05;28.09;100780.09;4969900;28;6796;-75
2023/04/26 11:42:04;;;;;;;;;;;;;;;20.14;28.00;100784.56;4952648;28;7090;-75
2023/04/26 11:44:30;;;;;;;;;;;;;;;20.18;28.10;100788.06;4978732;28;7100;-75
2023/04/26 11:46:56;;;;;;;;;;;;;;;20.08;28.03;100781.88;4966274;28;7933;-75
2023/04/26 11:49:22;;;;;;;;;;;;;;;19.92;28.06;100783.34;4974787;28;7259;-75
2023/04/26 11:51:48;;;;;;;;;;;;;;;19.80;28.55;100784.91;4961871;28;6989;-75
2023/04/26 11:54:33;;;;;;;;;;;;;;;19.69;28.21;100781.22;4967078;28;8117;-74
2023/04/26 11:57:01;;;;;;;;;;;;;;;19.63;28.59;100781.13;4961010;28;6969;-74
2023/04/26 11:59:30;;;;;;;;;;;;;;;19.53;28.12;100788.78;4960223;28;8037;-74
2023/04/26 12:01:57;;;;;;;;;;;;;;;19.38;28.16;100791.09;4998012;28;7189;-74
2023/04/26 12:04:29;;;;;;;;;;;;;;;19.38;28.31;100785.91;4963397;28;7034;-74
2023/04/26 12:06:57;;;;;;;;;;;;;;;19.49;28.33;100789.56;4967967;28;7628;-74
2023/04/26 12:09:28;;;;;;;;;;;;;;;19.72;28.30;100786.50;4980960;28;7185;-74
2023/04/26 12:12:05;;;;;;;;;;;;;;;19.94;27.97;100792.94;4993805;28;7429;-74
2023/04/26 12:14:31;;;;;;;;;;;;;;;20.14;27.98;100783.69;4981263;28;6803;-74
2023/04/26 12:17:01;;;;;;;;;;;;;;;20.37;27.66;100773.59;4970334;28;8538;-74
2023/04/26 12:19:37;;;;;;;;;;;;;;;20.56;27.54;100785.13;4982703;28;6982;-74
2023/04/26 12:22:07;;;;;;;;;;;;;;;20.66;27.44;100780.91;4961169;28;6898;-74
2023/04/26 12:24:35;;;;;;;;;;;;;;;21.03;26.70;100773.56;4963681;28;6804;-74
2023/04/26 12:27:05;;;;;;;;;;;;;;;21.28;26.26;100768.56;4962527;28;7299;-74
2023/04/26 12:29:31;;;;;;;;;;;;;;;21.50;25.94;100774.88;4963630;28;7144;-74
2023/04/26 12:31:58;;;;;;;;;;;;;;;21.62;25.85;100768.00;4981548;28;6804;-74
2023/04/26 12:34:24;;;;;;;;;;;;;;;21.74;25.68;100768.16;4980251;28;6796;-74
2023/04/26 12:36:50;;;;;;;;;;;;;;;21.73;25.72;100771.63;4983562;28;6982;-74
2023/04/26 12:39:15;;;;;;;;;;;;;;;22.09;26.05;100758.81;4981933;28;7092;-74
2023/04/26 12:41:43;;;;;;;;;;;;;;;22.80;25.51;100763.53;4998171;28;8299;-74
2023/04/26 12:44:11;;;;;;;;;;;;;;;23.51;24.87;100761.91;4979541;28;6859;-74
2023/04/26 12:46:37;;;;;;;;;;;;;;;24.03;24.23;100762.72;4995504;28;6784;-74
2023/04/26 12:49:03;;;;;;;;;;;;;;;24.59;23.92;100760.84;4984269;28;7157;-74
2023/04/26 12:51:30;;;;;;;;;;;;;;;24.91;23.63;100756.31;5016833;28;6784;-74
2023/04/26 12:53:56;;;;;;;;;;;;;;;25.02;23.39;100751.03;4977199;28;6781;-74
2023/04/26 12:56:23;;;;;;;;;;;;;;;24.80;22.96;100754.63;4981391;28;6780;-74
2023/04/26 12:58:49;;;;;;;;;;;;;;;24.23;23.09;100752.25;4984770;28;6935;-74